Date,TemperatureHighF,TemperatureAvgF,TemperatureLowF,DewpointHighF,DewpointAvgF,DewpointLowF,HumidityHigh,HumidityAvg,HumidityLow,PressureMaxIn,PressureMinIn,WindSpeedMaxMPH,WindSpeedAvgMPH,GustSpeedMaxMPH,PrecipitationSumIn
2013-7-1,82,72,59,55,50,44,74,49,27,30.21,30.14,13,6,17,0.00
2013-7-2,81,72,61,58,52,48,76,51,33,30.17,30.07,14,5,18,0.00
2013-7-3,82,73,62,56,52,48,81,49,32,30.08,29.97,12,4,14,0.00
2013-7-4,87,76,64,56,52,46,71,46,25,29.98,29.88,20,9,35,0.00
2013-7-5,88,77,69,61,56,52,67,50,33,29.92,29.83,25,12,30,0.00
2013-7-6,90,78,70,64,60,57,64,54,37,29.89,29.81,22,11,28,0.00
2013-7-7,90,78,70,70,64,61,86,62,44,29.94,29.86,30,6,58,1.40
2013-7-8,87,75,66,70,65,62,90,73,44,30.02,29.92,8,4,12,0.00
2013-7-9,85,77,66,69,66,61,86,69,50,30.00,29.79,31,8,46,0.30
2013-7-10,78,69,60,65,55,49,84,62,38,30.11,30.00,19,7,23,0.00
2013-7-11,84,72,62,58,55,51,80,56,34,30.13,29.98,20,8,24,0.00
2013-7-12,88,76,66,63,58,55,68,54,40,30.01,29.91,26,15,36,0.00
2013-7-13,80,73,67,65,61,58,83,66,56,30.06,29.93,24,12,33,0.16
2013-7-14,85,75,67,62,59,56,80,60,37,30.19,30.03,19,10,23,0.01
2013-7-15,86,76,65,69,62,58,84,64,40,30.24,30.16,16,7,22,0.00
2013-7-16,90,81,71,68,65,62,85,61,39,30.25,30.18,17,8,23,0.00
2013-7-17,93,82,72,68,66,63,79,59,39,30.29,30.15,17,7,22,0.00
2013-7-18,90,83,75,68,66,63,77,59,42,30.15,29.86,26,10,30,0.00
2013-7-19,82,78,68,67,60,51,77,56,35,29.95,29.81,21,10,26,0.03
2013-7-20,80,71,62,64,59,56,84,66,47,30.00,29.91,12,5,17,0.00
2013-7-21,84,74,66,65,62,52,88,69,34,29.95,29.81,11,5,14,0.00
2013-7-22,89,74,64,68,62,43,90,67,20,29.92,29.68,26,9,37,0.01
2013-7-23,73,64,57,56,53,48,84,69,47,30.04,29.90,13,6,16,0.01
2013-7-24,78,68,57,56,53,50,83,60,38,30.09,30.01,13,4,16,0.00
2013-7-25,82,70,62,66,60,54,85,70,52,30.03,29.95,16,6,23,0.06
2013-7-26,67,62,55,62,51,47,86,68,50,30.11,29.97,23,11,28,0.00
2013-7-27,66,58,50,48,43,37,83,59,38,30.12,29.99,18,9,26,0.00
2013-7-28,71,59,46,50,44,41,82,60,38,30.08,30.01,17,6,20,0.00
2013-7-29,76,64,50,54,49,44,82,59,36,30.12,30.06,16,6,24,0.00
2013-7-30,72,67,62,63,59,54,90,75,63,30.11,30.06,11,4,13,0.00
2013-7-31,78,68,58,61,57,51,92,70,38,30.14,30.05,12,6,18,0.00